ARKANSAS RIVER NAVIGATION REPORT
  LITTLE ROCK DISTRICT - U.S. ARMY CORPS OF ENGINEERS
  GENERATED: 05 JUL 2020 @ 17:35
 
  NOTE: These data are not guaranteed to be valid or correct.
        RELEASES AND FLOWS ARE IN THOUSANDS OF CFS
  _____________________________________________________________________________
 
                   4JUL      4JUL       4JUL            5JUL           5JUL
                  @1200     @2400     AVERAGE      LATEST OBSERVED    PRECIP.
                  HOURS     HOURS      FLOW         DATA AND TIME     (7A-7A)
  _____________________________________________________________________________
 
  LD13 HW-ELEV    392.19    392.31                392.33  @  16:00       .33
  LD13 TW-ELEV    371.43    371.43                371.41  @  16:00
  LD13 RELEASE      0.0       6.1       6.0         8.0   @  16:00
 
  OZA.L&D HW-ELEV 371.73    371.62                371.50  @  16:00       .54
  OZA.L&D TW-ELEV 338.47    338.40                338.38  @  16:00
  OZA.L&D RELEASE   9.2       9.2                   9.2   @   7:00
 
  DRD.L&D HW-ELEV 338.35    338.27                338.42  @  16:00       .45
  DRD.L&D TW-ELEV 285.03    285.44                284.34  @  16:00
  DRD.L&D RELEASE  10.6      10.6      10.6          .3   @  16:00
 
  LD09 HW-ELEV    284.74    285.06                284.21  @  16:00      0.00
  LD09 TW-ELEV    265.27    265.18                264.97  @  16:00
  LD09 RELEASE     13.0      13.0                   2.0   @  16:00
 
  LD08 HW-ELEV    265.06    264.89                265.22  @  16:00      1.64
  LD08 TW-ELEV    249.90    249.90                249.13  @  16:00
  LD08 RELEASE     12.8      12.4      15.3         0.0   @  16:00
 
  LD07 HW-ELEV    249.10    249.20                249.13  @  16:00      0.00
  LD07 TW-ELEV    231.27    231.07                231.14  @  16:00
  LD07 RELEASE     22.9      15.0      18.9         4.2   @  16:00
 
  LD06 HW-ELEV    231.22    231.06                231.20  @  16:00      0.00
  LD06 TW-ELEV    214.01    213.83                213.54  @  16:00
  LD06 RELEASE     20.5      11.4      15.8         1.5   @  16:00
 
  LD05 HW-ELEV    213.83    213.92                213.92  @  16:00      0.00
  LD05 TW-ELEV    195.97    195.77                195.63  @  16:00
  LD05 RELEASE     19.9      19.9                  19.9   @   7:00
 
  LD04 HW-ELEV    196.08    196.00                195.96  @  16:00      0.00
  LD04 TW-ELEV    182.67    182.65                182.32  @  16:00
  LD04 RELEASE     17.6      17.6                  17.6   @   7:00
 
  LD03 HW-ELEV    182.20    182.32                182.02  @  16:00      0.00
  LD03 TW-ELEV    163.82    162.78                162.72  @  16:00
  LD03 RELEASE     19.1      12.6      19.1         4.4   @  16:00
 
  L02 HW-ELEV     162.71    162.75                162.78  @  16:00       .50
 
  D02 HW-ELEV     162.88    162.82                162.94  @  16:00       .50
  D02 TW-ELEV     129.74    127.74                128.18  @  16:00
  D02 RELEASE      24.7      15.3                  16.5   @   7:00
 
  L01 TW-ELEV     137.70    138.35                138.99  @  16:00       .01
 
  MPLD HW-ELEV    136.63    137.35                138.11  @  16:00       .06	
  MPLD TW-ELEV    136.36    137.11                137.88  @  16:00
 
  WREC DIFF.        1.07      1.00                   .88
  CLARENDON FLOW   40.21     39.92     40.18       39.69  @  16:00
  HELENA STAGE     24.38     25.30                 26.11  @  16:00
  CAIRO STAGE      34.91     34.66                 34.05  @  16:00
  _____________________________________________________________________________